sensor_id;sensor_type;location;lat;lon;timestamp;temperature;humidity
37998;DHT22;24079;51.824;4.682;2023-12-22T00:01:21;9.70;99.90
37998;DHT22;24079;51.824;4.682;2023-12-22T00:03:46;9.70;99.90
37998;DHT22;24079;51.824;4.682;2023-12-22T00:06:12;9.70;99.90
37998;DHT22;24079;51.824;4.682;2023-12-22T00:08:38;9.70;99.90
37998;DHT22;24079;51.824;4.682;2023-12-22T00:11:04;9.70;99.90
37998;DHT22;24079;51.824;4.682;2023-12-22T00:13:30;9.70;99.90
37998;DHT22;24079;51.824;4.682;2023-12-22T00:15:55;9.70;99.90
37998;DHT22;24079;51.824;4.682;2023-12-22T00:18:21;9.60;99.90
37998;DHT22;24079;51.824;4.682;2023-12-22T00:20:47;9.60;99.90
37998;DHT22;24079;51.824;4.682;2023-12-22T00:23:13;9.60;99.90
37998;DHT22;24079;51.824;4.682;2023-12-22T00:25:38;9.60;99.90
37998;DHT22;24079;51.824;4.682;2023-12-22T00:28:04;9.60;99.90
37998;DHT22;24079;51.824;4.682;2023-12-22T00:30:30;9.50;99.90
37998;DHT22;24079;51.824;4.682;2023-12-22T00:32:56;9.50;99.90
37998;DHT22;24079;51.824;4.682;2023-12-22T00:35:21;9.40;99.90
37998;DHT22;24079;51.824;4.682;2023-12-22T00:37:47;9.50;99.90
37998;DHT22;24079;51.824;4.682;2023-12-22T00:40:12;9.50;99.90
37998;DHT22;24079;51.824;4.682;2023-12-22T00:42:38;9.60;99.90
37998;DHT22;24079;51.824;4.682;2023-12-22T00:45:04;9.60;99.90
37998;DHT22;24079;51.824;4.682;2023-12-22T00:47:30;9.60;99.90
37998;DHT22;24079;51.824;4.682;2023-12-22T00:49:55;9.70;99.90
37998;DHT22;24079;51.824;4.682;2023-12-22T00:52:21;9.70;99.90
37998;DHT22;24079;51.824;4.682;2023-12-22T00:54:47;9.70;99.90
37998;DHT22;24079;51.824;4.682;2023-12-22T00:57:13;9.60;99.90
37998;DHT22;24079;51.824;4.682;2023-12-22T00:59:39;9.70;99.90
37998;DHT22;24079;51.824;4.682;2023-12-22T01:02:17;9.70;99.90
37998;DHT22;24079;51.824;4.682;2023-12-22T01:04:43;9.70;99.90
37998;DHT22;24079;51.824;4.682;2023-12-22T01:07:10;9.70;99.90
37998;DHT22;24079;51.824;4.682;2023-12-22T01:09:37;9.60;99.90
37998;DHT22;24079;51.824;4.682;2023-12-22T01:12:06;9.60;99.90
37998;DHT22;24079;51.824;4.682;2023-12-22T01:14:33;9.50;99.90
37998;DHT22;24079;51.824;4.682;2023-12-22T01:16:59;9.50;99.90
37998;DHT22;24079;51.824;4.682;2023-12-22T01:19:26;9.50;99.90
37998;DHT22;24079;51.824;4.682;2023-12-22T01:21:52;9.50;99.90
37998;DHT22;24079;51.824;4.682;2023-12-22T01:24:18;9.50;99.90
37998;DHT22;24079;51.824;4.682;2023-12-22T01:26:44;9.50;99.90
37998;DHT22;24079;51.824;4.682;2023-12-22T01:29:10;9.50;99.90
37998;DHT22;24079;51.824;4.682;2023-12-22T01:31:36;9.50;99.90
37998;DHT22;24079;51.824;4.682;2023-12-22T01:34:02;9.60;99.90
37998;DHT22;24079;51.824;4.682;2023-12-22T01:36:28;9.50;99.90
37998;DHT22;24079;51.824;4.682;2023-12-22T01:38:54;9.50;99.90
37998;DHT22;24079;51.824;4.682;2023-12-22T01:41:20;9.40;99.90
37998;DHT22;24079;51.824;4.682;2023-12-22T01:43:46;9.50;99.90
37998;DHT22;24079;51.824;4.682;2023-12-22T01:46:12;9.40;99.90
37998;DHT22;24079;51.824;4.682;2023-12-22T01:48:39;9.50;99.90
37998;DHT22;24079;51.824;4.682;2023-12-22T01:51:06;9.50;99.90
37998;DHT22;24079;51.824;4.682;2023-12-22T01:53:33;9.50;99.90
37998;DHT22;24079;51.824;4.682;2023-12-22T01:56:00;9.40;99.90
37998;DHT22;24079;51.824;4.682;2023-12-22T01:58:29;9.40;99.90
37998;DHT22;24079;51.824;4.682;2023-12-22T02:00:56;9.40;99.90
37998;DHT22;24079;51.824;4.682;2023-12-22T02:03:23;9.40;99.90
37998;DHT22;24079;51.824;4.682;2023-12-22T02:05:49;9.50;99.90
37998;DHT22;24079;51.824;4.682;2023-12-22T02:08:17;9.40;99.90
37998;DHT22;24079;51.824;4.682;2023-12-22T02:10:44;9.10;99.90
37998;DHT22;24079;51.824;4.682;2023-12-22T02:13:11;8.80;99.90
37998;DHT22;24079;51.824;4.682;2023-12-22T02:15:38;8.70;99.90
37998;DHT22;24079;51.824;4.682;2023-12-22T02:18:14;8.60;99.90
37998;DHT22;24079;51.824;4.682;2023-12-22T02:20:40;8.60;99.90
37998;DHT22;24079;51.824;4.682;2023-12-22T02:23:06;8.50;99.90
37998;DHT22;24079;51.824;4.682;2023-12-22T02:25:32;8.60;99.90
37998;DHT22;24079;51.824;4.682;2023-12-22T02:28:02;8.60;99.90
37998;DHT22;24079;51.824;4.682;2023-12-22T02:33:10;8.60;99.90
37998;DHT22;24079;51.824;4.682;2023-12-22T02:35:38;8.80;99.90
37998;DHT22;24079;51.824;4.682;2023-12-22T02:38:07;8.80;99.90
37998;DHT22;24079;51.824;4.682;2023-12-22T02:40:34;8.90;99.90
37998;DHT22;24079;51.824;4.682;2023-12-22T02:43:01;9.00;99.90
37998;DHT22;24079;51.824;4.682;2023-12-22T02:45:27;9.00;99.90
37998;DHT22;24079;51.824;4.682;2023-12-22T02:47:53;9.10;99.90
37998;DHT22;24079;51.824;4.682;2023-12-22T02:50:18;9.20;99.90
37998;DHT22;24079;51.824;4.682;2023-12-22T02:52:44;9.20;99.90
37998;DHT22;24079;51.824;4.682;2023-12-22T02:55:09;9.30;99.90
37998;DHT22;24079;51.824;4.682;2023-12-22T02:57:36;9.30;99.90
37998;DHT22;24079;51.824;4.682;2023-12-22T03:00:02;9.30;99.90
37998;DHT22;24079;51.824;4.682;2023-12-22T03:02:28;9.30;99.90
37998;DHT22;24079;51.824;4.682;2023-12-22T03:04:54;9.30;99.90
37998;DHT22;24079;51.824;4.682;2023-12-22T03:07:19;9.30;99.90
37998;DHT22;24079;51.824;4.682;2023-12-22T03:09:49;9.40;99.90
37998;DHT22;24079;51.824;4.682;2023-12-22T03:12:15;9.40;99.90
37998;DHT22;24079;51.824;4.682;2023-12-22T03:14:41;9.50;99.90
37998;DHT22;24079;51.824;4.682;2023-12-22T03:17:07;9.50;99.90
37998;DHT22;24079;51.824;4.682;2023-12-22T03:19:33;9.50;99.90
37998;DHT22;24079;51.824;4.682;2023-12-22T03:22:00;9.40;99.90
37998;DHT22;24079;51.824;4.682;2023-12-22T03:24:26;9.50;99.90
37998;DHT22;24079;51.824;4.682;2023-12-22T03:26:54;9.40;99.90
37998;DHT22;24079;51.824;4.682;2023-12-22T03:29:20;9.40;99.90
37998;DHT22;24079;51.824;4.682;2023-12-22T03:31:47;9.40;99.90
37998;DHT22;24079;51.824;4.682;2023-12-22T03:34:13;9.50;99.90
37998;DHT22;24079;51.824;4.682;2023-12-22T03:36:39;9.50;99.90
37998;DHT22;24079;51.824;4.682;2023-12-22T03:39:05;9.60;99.90
37998;DHT22;24079;51.824;4.682;2023-12-22T03:41:31;9.60;99.90
37998;DHT22;24079;51.824;4.682;2023-12-22T03:43:58;9.50;99.90
37998;DHT22;24079;51.824;4.682;2023-12-22T03:46:24;9.60;99.90
37998;DHT22;24079;51.824;4.682;2023-12-22T03:48:52;9.60;99.90
37998;DHT22;24079;51.824;4.682;2023-12-22T03:51:18;9.60;99.90
37998;DHT22;24079;51.824;4.682;2023-12-22T03:53:43;9.50;99.90
37998;DHT22;24079;51.824;4.682;2023-12-22T03:56:09;9.60;99.90
37998;DHT22;24079;51.824;4.682;2023-12-22T03:58:38;9.60;99.90
37998;DHT22;24079;51.824;4.682;2023-12-22T04:01:03;9.60;99.90
37998;DHT22;24079;51.824;4.682;2023-12-22T04:03:29;9.60;99.90
37998;DHT22;24079;51.824;4.682;2023-12-22T04:05:55;9.70;99.90
37998;DHT22;24079;51.824;4.682;2023-12-22T04:08:20;9.70;99.90
37998;DHT22;24079;51.824;4.682;2023-12-22T04:10:47;9.70;99.90
37998;DHT22;24079;51.824;4.682;2023-12-22T04:13:13;9.70;99.90
37998;DHT22;24079;51.824;4.682;2023-12-22T04:15:39;9.80;99.90
37998;DHT22;24079;51.824;4.682;2023-12-22T04:18:05;9.80;99.90
37998;DHT22;24079;51.824;4.682;2023-12-22T04:20:31;9.80;99.90
37998;DHT22;24079;51.824;4.682;2023-12-22T04:22:57;9.80;99.90
37998;DHT22;24079;51.824;4.682;2023-12-22T04:25:23;9.80;99.90
37998;DHT22;24079;51.824;4.682;2023-12-22T04:27:50;9.80;99.90
37998;DHT22;24079;51.824;4.682;2023-12-22T04:30:17;9.80;99.90
37998;DHT22;24079;51.824;4.682;2023-12-22T04:32:43;9.80;99.90
37998;DHT22;24079;51.824;4.682;2023-12-22T04:35:09;9.80;99.90
37998;DHT22;24079;51.824;4.682;2023-12-22T04:37:34;9.80;99.90
37998;DHT22;24079;51.824;4.682;2023-12-22T04:40:00;9.60;99.90
37998;DHT22;24079;51.824;4.682;2023-12-22T04:42:26;9.60;99.90
37998;DHT22;24079;51.824;4.682;2023-12-22T04:44:52;9.50;99.90
37998;DHT22;24079;51.824;4.682;2023-12-22T04:47:18;9.50;99.90
37998;DHT22;24079;51.824;4.682;2023-12-22T04:49:44;9.50;99.90
37998;DHT22;24079;51.824;4.682;2023-12-22T04:52:11;9.50;99.90
37998;DHT22;24079;51.824;4.682;2023-12-22T04:54:36;9.50;99.90
37998;DHT22;24079;51.824;4.682;2023-12-22T04:57:02;9.50;99.90
37998;DHT22;24079;51.824;4.682;2023-12-22T04:59:28;9.50;99.90
37998;DHT22;24079;51.824;4.682;2023-12-22T05:01:53;9.60;99.90
37998;DHT22;24079;51.824;4.682;2023-12-22T05:04:19;9.60;99.90
37998;DHT22;24079;51.824;4.682;2023-12-22T05:06:45;9.70;99.90
37998;DHT22;24079;51.824;4.682;2023-12-22T05:09:11;9.70;99.90
37998;DHT22;24079;51.824;4.682;2023-12-22T05:11:37;9.80;99.90
37998;DHT22;24079;51.824;4.682;2023-12-22T05:14:03;9.80;99.90
37998;DHT22;24079;51.824;4.682;2023-12-22T05:16:29;9.80;99.90
37998;DHT22;24079;51.824;4.682;2023-12-22T05:18:57;9.80;99.90
37998;DHT22;24079;51.824;4.682;2023-12-22T05:21:23;9.80;99.90
37998;DHT22;24079;51.824;4.682;2023-12-22T05:23:49;9.80;99.90
37998;DHT22;24079;51.824;4.682;2023-12-22T05:26:19;9.90;99.90
37998;DHT22;24079;51.824;4.682;2023-12-22T05:28:45;9.80;99.90
37998;DHT22;24079;51.824;4.682;2023-12-22T05:31:11;9.80;99.90
37998;DHT22;24079;51.824;4.682;2023-12-22T05:33:37;9.70;99.90
37998;DHT22;24079;51.824;4.682;2023-12-22T05:36:04;9.70;99.90
37998;DHT22;24079;51.824;4.682;2023-12-22T05:38:30;9.60;99.90
37998;DHT22;24079;51.824;4.682;2023-12-22T05:40:57;9.70;99.90
37998;DHT22;24079;51.824;4.682;2023-12-22T05:43:23;9.60;99.90
37998;DHT22;24079;51.824;4.682;2023-12-22T05:45:49;9.70;99.90
37998;DHT22;24079;51.824;4.682;2023-12-22T05:48:14;9.70;99.90
37998;DHT22;24079;51.824;4.682;2023-12-22T05:50:40;9.70;99.90
37998;DHT22;24079;51.824;4.682;2023-12-22T05:53:06;9.70;99.90
37998;DHT22;24079;51.824;4.682;2023-12-22T05:55:31;9.70;99.90
37998;DHT22;24079;51.824;4.682;2023-12-22T05:57:57;9.90;99.90
37998;DHT22;24079;51.824;4.682;2023-12-22T06:00:23;9.80;99.90
37998;DHT22;24079;51.824;4.682;2023-12-22T06:02:49;9.80;99.90
37998;DHT22;24079;51.824;4.682;2023-12-22T06:05:15;9.80;99.90
37998;DHT22;24079;51.824;4.682;2023-12-22T06:07:40;9.70;99.90
37998;DHT22;24079;51.824;4.682;2023-12-22T06:10:07;9.80;99.90
37998;DHT22;24079;51.824;4.682;2023-12-22T06:12:35;9.80;99.90
37998;DHT22;24079;51.824;4.682;2023-12-22T06:15:02;9.80;99.90
37998;DHT22;24079;51.824;4.682;2023-12-22T06:17:28;9.80;99.90
37998;DHT22;24079;51.824;4.682;2023-12-22T06:19:54;9.90;99.90
37998;DHT22;24079;51.824;4.682;2023-12-22T06:22:20;9.90;99.90
37998;DHT22;24079;51.824;4.682;2023-12-22T06:24:47;9.90;99.90
37998;DHT22;24079;51.824;4.682;2023-12-22T06:27:13;10.00;99.90
37998;DHT22;24079;51.824;4.682;2023-12-22T06:29:39;9.90;99.90
37998;DHT22;24079;51.824;4.682;2023-12-22T06:32:05;9.90;99.90
37998;DHT22;24079;51.824;4.682;2023-12-22T06:34:31;10.00;99.90
37998;DHT22;24079;51.824;4.682;2023-12-22T06:36:57;10.00;99.90
37998;DHT22;24079;51.824;4.682;2023-12-22T06:39:23;10.00;99.90
37998;DHT22;24079;51.824;4.682;2023-12-22T06:41:48;10.00;99.90
37998;DHT22;24079;51.824;4.682;2023-12-22T06:44:14;10.10;99.90
37998;DHT22;24079;51.824;4.682;2023-12-22T06:46:40;10.10;99.90
37998;DHT22;24079;51.824;4.682;2023-12-22T06:49:07;10.10;99.90
37998;DHT22;24079;51.824;4.682;2023-12-22T06:51:32;10.20;99.90
37998;DHT22;24079;51.824;4.682;2023-12-22T06:54:01;10.20;99.90
37998;DHT22;24079;51.824;4.682;2023-12-22T06:56:30;10.20;99.90
37998;DHT22;24079;51.824;4.682;2023-12-22T06:58:57;10.20;99.90
37998;DHT22;24079;51.824;4.682;2023-12-22T07:01:27;10.20;99.90
37998;DHT22;24079;51.824;4.682;2023-12-22T07:03:53;10.10;99.90
37998;DHT22;24079;51.824;4.682;2023-12-22T07:06:20;10.20;99.90
37998;DHT22;24079;51.824;4.682;2023-12-22T07:08:56;10.20;99.90
37998;DHT22;24079;51.824;4.682;2023-12-22T07:11:54;10.20;99.90
37998;DHT22;24079;51.824;4.682;2023-12-22T07:14:21;10.10;99.90
37998;DHT22;24079;51.824;4.682;2023-12-22T07:16:47;10.10;99.90
37998;DHT22;24079;51.824;4.682;2023-12-22T07:19:13;10.10;99.90
37998;DHT22;24079;51.824;4.682;2023-12-22T07:21:39;10.10;99.90
37998;DHT22;24079;51.824;4.682;2023-12-22T07:24:06;10.10;99.90
37998;DHT22;24079;51.824;4.682;2023-12-22T07:26:31;10.10;99.90
37998;DHT22;24079;51.824;4.682;2023-12-22T07:28:57;10.10;99.90
37998;DHT22;24079;51.824;4.682;2023-12-22T07:31:24;10.20;99.90
37998;DHT22;24079;51.824;4.682;2023-12-22T07:33:50;10.20;99.90
37998;DHT22;24079;51.824;4.682;2023-12-22T07:36:16;10.10;99.90
37998;DHT22;24079;51.824;4.682;2023-12-22T07:38:43;10.20;99.90
37998;DHT22;24079;51.824;4.682;2023-12-22T07:41:09;10.20;99.90
37998;DHT22;24079;51.824;4.682;2023-12-22T07:43:35;10.20;99.90
37998;DHT22;24079;51.824;4.682;2023-12-22T07:46:00;10.20;99.90
37998;DHT22;24079;51.824;4.682;2023-12-22T07:48:26;10.20;99.90
37998;DHT22;24079;51.824;4.682;2023-12-22T07:50:52;10.20;99.90
37998;DHT22;24079;51.824;4.682;2023-12-22T07:53:17;10.20;99.90
37998;DHT22;24079;51.824;4.682;2023-12-22T07:55:46;10.20;99.90
37998;DHT22;24079;51.824;4.682;2023-12-22T07:58:13;10.10;99.90
37998;DHT22;24079;51.824;4.682;2023-12-22T08:00:40;10.20;99.90
37998;DHT22;24079;51.824;4.682;2023-12-22T08:03:06;10.20;99.90
37998;DHT22;24079;51.824;4.682;2023-12-22T08:05:32;10.20;99.90
37998;DHT22;24079;51.824;4.682;2023-12-22T08:07:59;10.10;99.90
37998;DHT22;24079;51.824;4.682;2023-12-22T08:10:25;10.10;99.90
37998;DHT22;24079;51.824;4.682;2023-12-22T08:12:53;10.10;99.90
37998;DHT22;24079;51.824;4.682;2023-12-22T08:15:18;10.10;99.90
37998;DHT22;24079;51.824;4.682;2023-12-22T08:17:48;10.10;99.90
37998;DHT22;24079;51.824;4.682;2023-12-22T08:20:21;10.00;99.90
37998;DHT22;24079;51.824;4.682;2023-12-22T08:22:50;10.10;99.90
37998;DHT22;24079;51.824;4.682;2023-12-22T08:25:16;10.10;99.90
37998;DHT22;24079;51.824;4.682;2023-12-22T08:27:45;10.10;99.90
37998;DHT22;24079;51.824;4.682;2023-12-22T08:30:11;10.10;99.90
37998;DHT22;24079;51.824;4.682;2023-12-22T08:32:37;10.10;99.90
37998;DHT22;24079;51.824;4.682;2023-12-22T08:35:03;10.10;99.90
37998;DHT22;24079;51.824;4.682;2023-12-22T08:37:30;10.20;99.90
37998;DHT22;24079;51.824;4.682;2023-12-22T08:39:55;10.20;99.90
37998;DHT22;24079;51.824;4.682;2023-12-22T08:42:21;10.20;99.90
37998;DHT22;24079;51.824;4.682;2023-12-22T08:44:50;10.20;99.90
37998;DHT22;24079;51.824;4.682;2023-12-22T08:47:16;10.20;99.90
37998;DHT22;24079;51.824;4.682;2023-12-22T08:49:42;10.30;99.90
37998;DHT22;24079;51.824;4.682;2023-12-22T08:52:08;10.30;99.90
37998;DHT22;24079;51.824;4.682;2023-12-22T08:54:33;10.30;99.90
37998;DHT22;24079;51.824;4.682;2023-12-22T08:57:03;10.30;99.90
37998;DHT22;24079;51.824;4.682;2023-12-22T08:59:29;10.30;99.90
37998;DHT22;24079;51.824;4.682;2023-12-22T09:01:54;10.30;99.90
37998;DHT22;24079;51.824;4.682;2023-12-22T09:04:20;10.30;99.90
37998;DHT22;24079;51.824;4.682;2023-12-22T09:06:48;10.20;99.90
37998;DHT22;24079;51.824;4.682;2023-12-22T09:09:14;10.30;99.90
37998;DHT22;24079;51.824;4.682;2023-12-22T09:11:40;10.30;99.90
37998;DHT22;24079;51.824;4.682;2023-12-22T09:14:06;10.40;99.90
37998;DHT22;24079;51.824;4.682;2023-12-22T09:16:35;10.40;99.90
37998;DHT22;24079;51.824;4.682;2023-12-22T09:19:01;10.50;99.90
37998;DHT22;24079;51.824;4.682;2023-12-22T09:21:26;10.50;99.90
37998;DHT22;24079;51.824;4.682;2023-12-22T09:23:52;10.60;99.90
37998;DHT22;24079;51.824;4.682;2023-12-22T09:26:18;10.60;99.90
37998;DHT22;24079;51.824;4.682;2023-12-22T09:28:44;10.70;99.90
37998;DHT22;24079;51.824;4.682;2023-12-22T09:31:10;10.60;99.90
37998;DHT22;24079;51.824;4.682;2023-12-22T09:33:38;10.70;99.90
37998;DHT22;24079;51.824;4.682;2023-12-22T09:36:05;10.70;99.90
37998;DHT22;24079;51.824;4.682;2023-12-22T09:38:31;10.80;99.90
37998;DHT22;24079;51.824;4.682;2023-12-22T09:40:57;10.80;99.90
37998;DHT22;24079;51.824;4.682;2023-12-22T09:43:23;10.80;99.90
37998;DHT22;24079;51.824;4.682;2023-12-22T09:45:50;10.90;99.90
37998;DHT22;24079;51.824;4.682;2023-12-22T09:48:17;10.90;99.90
37998;DHT22;24079;51.824;4.682;2023-12-22T09:50:46;10.90;99.90
37998;DHT22;24079;51.824;4.682;2023-12-22T09:53:13;10.90;99.90
37998;DHT22;24079;51.824;4.682;2023-12-22T09:55:45;10.90;99.90
37998;DHT22;24079;51.824;4.682;2023-12-22T09:58:14;10.90;99.90
37998;DHT22;24079;51.824;4.682;2023-12-22T10:00:42;10.90;99.90
37998;DHT22;24079;51.824;4.682;2023-12-22T10:03:16;10.90;99.90
37998;DHT22;24079;51.824;4.682;2023-12-22T10:05:41;10.90;99.90
37998;DHT22;24079;51.824;4.682;2023-12-22T10:08:09;10.90;99.90
37998;DHT22;24079;51.824;4.682;2023-12-22T10:10:38;11.00;99.90
37998;DHT22;24079;51.824;4.682;2023-12-22T10:13:06;11.00;99.90
37998;DHT22;24079;51.824;4.682;2023-12-22T10:15:39;11.00;99.90
37998;DHT22;24079;51.824;4.682;2023-12-22T10:18:08;11.00;99.90
37998;DHT22;24079;51.824;4.682;2023-12-22T10:20:41;11.00;99.90
37998;DHT22;24079;51.824;4.682;2023-12-22T10:23:08;11.00;99.90
37998;DHT22;24079;51.824;4.682;2023-12-22T10:25:40;11.00;99.90
37998;DHT22;24079;51.824;4.682;2023-12-22T10:28:10;11.10;99.90
37998;DHT22;24079;51.824;4.682;2023-12-22T10:30:36;11.10;99.90
37998;DHT22;24079;51.824;4.682;2023-12-22T10:33:06;11.20;99.90
37998;DHT22;24079;51.824;4.682;2023-12-22T10:35:32;11.20;99.90
37998;DHT22;24079;51.824;4.682;2023-12-22T10:37:58;11.20;99.90
37998;DHT22;24079;51.824;4.682;2023-12-22T10:40:25;11.30;99.90
37998;DHT22;24079;51.824;4.682;2023-12-22T10:42:51;11.30;99.90
37998;DHT22;24079;51.824;4.682;2023-12-22T10:45:18;11.30;99.90
37998;DHT22;24079;51.824;4.682;2023-12-22T10:47:45;11.40;99.90
37998;DHT22;24079;51.824;4.682;2023-12-22T10:50:14;11.40;99.90
37998;DHT22;24079;51.824;4.682;2023-12-22T10:52:39;11.40;99.90
37998;DHT22;24079;51.824;4.682;2023-12-22T10:55:05;11.40;99.90
37998;DHT22;24079;51.824;4.682;2023-12-22T10:57:32;11.50;99.90
37998;DHT22;24079;51.824;4.682;2023-12-22T11:00:04;11.50;99.90
37998;DHT22;24079;51.824;4.682;2023-12-22T11:02:34;11.50;99.90
37998;DHT22;24079;51.824;4.682;2023-12-22T11:05:04;11.50;99.90
37998;DHT22;24079;51.824;4.682;2023-12-22T11:07:33;11.50;99.90
37998;DHT22;24079;51.824;4.682;2023-12-22T11:10:03;11.50;99.90
37998;DHT22;24079;51.824;4.682;2023-12-22T11:12:35;11.50;99.90
37998;DHT22;24079;51.824;4.682;2023-12-22T11:15:02;11.50;99.90
37998;DHT22;24079;51.824;4.682;2023-12-22T11:17:30;11.50;99.90
37998;DHT22;24079;51.824;4.682;2023-12-22T11:19:58;11.50;99.90
37998;DHT22;24079;51.824;4.682;2023-12-22T11:22:25;11.50;99.90
37998;DHT22;24079;51.824;4.682;2023-12-22T11:24:51;11.50;99.90
37998;DHT22;24079;51.824;4.682;2023-12-22T11:27:18;11.50;99.90
37998;DHT22;24079;51.824;4.682;2023-12-22T11:29:48;11.50;99.90
37998;DHT22;24079;51.824;4.682;2023-12-22T11:32:18;11.40;99.90
37998;DHT22;24079;51.824;4.682;2023-12-22T11:34:46;11.30;99.90
37998;DHT22;24079;51.824;4.682;2023-12-22T11:37:13;11.40;99.90
37998;DHT22;24079;51.824;4.682;2023-12-22T11:39:40;11.40;99.90
37998;DHT22;24079;51.824;4.682;2023-12-22T11:42:08;11.40;99.90
37998;DHT22;24079;51.824;4.682;2023-12-22T11:44:35;11.40;99.90
37998;DHT22;24079;51.824;4.682;2023-12-22T11:47:05;11.30;99.90
37998;DHT22;24079;51.824;4.682;2023-12-22T11:49:32;11.30;99.90
37998;DHT22;24079;51.824;4.682;2023-12-22T11:52:12;11.30;99.90
37998;DHT22;24079;51.824;4.682;2023-12-22T11:54:52;11.40;99.90
37998;DHT22;24079;51.824;4.682;2023-12-22T12:00:03;11.40;99.90
37998;DHT22;24079;51.824;4.682;2023-12-22T12:02:36;11.40;99.90
37998;DHT22;24079;51.824;4.682;2023-12-22T12:05:04;11.40;99.90
37998;DHT22;24079;51.824;4.682;2023-12-22T12:07:42;11.50;99.90
37998;DHT22;24079;51.824;4.682;2023-12-22T12:10:12;11.50;99.90
37998;DHT22;24079;51.824;4.682;2023-12-22T12:12:38;11.50;99.90
37998;DHT22;24079;51.824;4.682;2023-12-22T12:15:12;11.60;99.90
37998;DHT22;24079;51.824;4.682;2023-12-22T12:17:42;11.50;99.90
37998;DHT22;24079;51.824;4.682;2023-12-22T12:20:13;11.60;99.90
37998;DHT22;24079;51.824;4.682;2023-12-22T12:22:39;11.60;99.90
37998;DHT22;24079;51.824;4.682;2023-12-22T12:25:10;11.60;99.90
37998;DHT22;24079;51.824;4.682;2023-12-22T12:27:36;11.60;99.90
37998;DHT22;24079;51.824;4.682;2023-12-22T12:30:08;11.60;99.90
37998;DHT22;24079;51.824;4.682;2023-12-22T12:32:36;11.60;99.90
37998;DHT22;24079;51.824;4.682;2023-12-22T12:35:03;11.70;99.90
37998;DHT22;24079;51.824;4.682;2023-12-22T12:37:30;11.70;99.90
37998;DHT22;24079;51.824;4.682;2023-12-22T12:39:58;11.70;99.90
37998;DHT22;24079;51.824;4.682;2023-12-22T12:42:29;11.70;99.90
37998;DHT22;24079;51.824;4.682;2023-12-22T12:44:56;11.70;99.90
37998;DHT22;24079;51.824;4.682;2023-12-22T12:47:23;11.60;99.90
37998;DHT22;24079;51.824;4.682;2023-12-22T12:49:58;11.70;99.90
37998;DHT22;24079;51.824;4.682;2023-12-22T12:52:26;11.70;99.90
37998;DHT22;24079;51.824;4.682;2023-12-22T12:54:53;11.70;99.90
37998;DHT22;24079;51.824;4.682;2023-12-22T12:57:19;11.70;99.90
37998;DHT22;24079;51.824;4.682;2023-12-22T12:59:47;11.60;99.90
37998;DHT22;24079;51.824;4.682;2023-12-22T13:02:18;11.70;99.90
37998;DHT22;24079;51.824;4.682;2023-12-22T13:04:44;11.60;99.90
37998;DHT22;24079;51.824;4.682;2023-12-22T13:07:10;11.60;99.90
37998;DHT22;24079;51.824;4.682;2023-12-22T13:09:40;11.70;99.90
37998;DHT22;24079;51.824;4.682;2023-12-22T13:12:08;11.60;99.90
37998;DHT22;24079;51.824;4.682;2023-12-22T13:14:34;11.60;99.90
37998;DHT22;24079;51.824;4.682;2023-12-22T13:17:00;11.60;99.90
37998;DHT22;24079;51.824;4.682;2023-12-22T13:19:27;11.60;99.90
37998;DHT22;24079;51.824;4.682;2023-12-22T13:21:53;11.50;99.90
37998;DHT22;24079;51.824;4.682;2023-12-22T13:24:20;11.50;99.90
37998;DHT22;24079;51.824;4.682;2023-12-22T13:26:46;11.60;99.90
37998;DHT22;24079;51.824;4.682;2023-12-22T13:29:13;11.50;99.90
37998;DHT22;24079;51.824;4.682;2023-12-22T13:31:40;11.50;99.90
37998;DHT22;24079;51.824;4.682;2023-12-22T13:34:10;11.60;99.90
37998;DHT22;24079;51.824;4.682;2023-12-22T13:36:36;11.60;99.90
37998;DHT22;24079;51.824;4.682;2023-12-22T13:39:04;11.50;99.90
37998;DHT22;24079;51.824;4.682;2023-12-22T13:41:40;11.60;99.90
37998;DHT22;24079;51.824;4.682;2023-12-22T13:44:08;11.60;99.90
37998;DHT22;24079;51.824;4.682;2023-12-22T13:46:34;11.60;99.90
37998;DHT22;24079;51.824;4.682;2023-12-22T13:49:02;11.60;99.90
37998;DHT22;24079;51.824;4.682;2023-12-22T13:51:44;11.60;99.90
37998;DHT22;24079;51.824;4.682;2023-12-22T13:54:10;11.70;99.90
37998;DHT22;24079;51.824;4.682;2023-12-22T13:56:37;11.60;99.90
37998;DHT22;24079;51.824;4.682;2023-12-22T13:59:06;11.70;99.90
37998;DHT22;24079;51.824;4.682;2023-12-22T14:01:32;11.70;99.90
37998;DHT22;24079;51.824;4.682;2023-12-22T14:03:59;11.70;99.90
37998;DHT22;24079;51.824;4.682;2023-12-22T14:06:26;11.70;99.90
37998;DHT22;24079;51.824;4.682;2023-12-22T14:08:53;11.70;99.90
37998;DHT22;24079;51.824;4.682;2023-12-22T14:11:20;11.70;99.90
37998;DHT22;24079;51.824;4.682;2023-12-22T14:13:46;11.70;99.90
37998;DHT22;24079;51.824;4.682;2023-12-22T14:16:12;11.70;99.90
37998;DHT22;24079;51.824;4.682;2023-12-22T14:18:38;11.70;99.90
37998;DHT22;24079;51.824;4.682;2023-12-22T14:21:04;11.70;99.90
37998;DHT22;24079;51.824;4.682;2023-12-22T14:23:31;11.70;99.90
37998;DHT22;24079;51.824;4.682;2023-12-22T14:25:56;11.60;99.90
37998;DHT22;24079;51.824;4.682;2023-12-22T14:28:22;11.60;99.90
37998;DHT22;24079;51.824;4.682;2023-12-22T14:30:48;11.60;99.90
37998;DHT22;24079;51.824;4.682;2023-12-22T14:33:15;11.70;99.90
37998;DHT22;24079;51.824;4.682;2023-12-22T14:35:41;11.70;99.90
37998;DHT22;24079;51.824;4.682;2023-12-22T14:38:06;11.60;99.90
37998;DHT22;24079;51.824;4.682;2023-12-22T14:40:32;11.70;99.90
37998;DHT22;24079;51.824;4.682;2023-12-22T14:42:58;11.70;99.90
37998;DHT22;24079;51.824;4.682;2023-12-22T14:45:24;11.70;99.90
37998;DHT22;24079;51.824;4.682;2023-12-22T14:47:50;11.70;99.90
37998;DHT22;24079;51.824;4.682;2023-12-22T14:50:17;11.70;99.90
37998;DHT22;24079;51.824;4.682;2023-12-22T14:52:42;11.80;99.90
37998;DHT22;24079;51.824;4.682;2023-12-22T14:55:08;11.80;99.90
37998;DHT22;24079;51.824;4.682;2023-12-22T14:57:34;11.70;99.90
37998;DHT22;24079;51.824;4.682;2023-12-22T15:00:00;11.70;99.90
37998;DHT22;24079;51.824;4.682;2023-12-22T15:02:26;11.70;99.90
37998;DHT22;24079;51.824;4.682;2023-12-22T15:04:52;11.80;99.90
37998;DHT22;24079;51.824;4.682;2023-12-22T15:07:19;11.80;99.90
37998;DHT22;24079;51.824;4.682;2023-12-22T15:09:45;11.70;99.90
37998;DHT22;24079;51.824;4.682;2023-12-22T15:12:17;11.70;99.90
37998;DHT22;24079;51.824;4.682;2023-12-22T15:14:44;11.80;99.90
37998;DHT22;24079;51.824;4.682;2023-12-22T15:17:11;11.80;99.90
37998;DHT22;24079;51.824;4.682;2023-12-22T15:19:42;11.80;99.90
37998;DHT22;24079;51.824;4.682;2023-12-22T15:22:09;11.70;99.90
37998;DHT22;24079;51.824;4.682;2023-12-22T15:24:42;11.70;99.90
37998;DHT22;24079;51.824;4.682;2023-12-22T15:27:11;11.80;99.90
37998;DHT22;24079;51.824;4.682;2023-12-22T15:29:38;11.80;99.90
37998;DHT22;24079;51.824;4.682;2023-12-22T15:32:04;11.80;99.90
37998;DHT22;24079;51.824;4.682;2023-12-22T15:34:30;11.80;99.90
37998;DHT22;24079;51.824;4.682;2023-12-22T15:36:57;11.80;99.90
37998;DHT22;24079;51.824;4.682;2023-12-22T15:39:23;11.70;99.90
37998;DHT22;24079;51.824;4.682;2023-12-22T15:41:49;11.70;99.90